SBTT/TBT METAR and TAF weather

Enter ICAO airport designator
Station Type Date Time Source
SBTT METAR 2021/09/27 22:00 UTC NOAA

SBTT 272200Z 31004KT 9999 FEW017 29/23 Q1010


Station Type Date Time Source
SBTT Decoded METAR 2021/09/27 22:00 UTC NOAA

Tabatinga, Brazil (SBTT) 03-40S 069-40W
Sep 27, 2021 - 06:00 PM EDT / 2021.09.27 2200 UTC
Wind: from the NW (310 degrees) at 5 MPH (4 KT):0
Visibility: greater than 7 mile(s):0
Sky conditions: mostly clear
Temperature: 84 F (29 C)
Dew Point: 73 F (23 C)
Relative Humidity: 70%
Pressure (altimeter): 29.83 in. Hg (1010 hPa)
ob: SBTT 272200Z 31004KT 9999 FEW017 29/23 Q1010
cycle: 22

Station Type Date Time Source
SBTT TAF 2021/09/28 06:31 UTC NOAA

TAF SBTT 280319Z 2806/2906 31005KT 9999 SCT015 TN24/2813Z TX30/2819Z PROB30 2812/2814 BKN006 PROB40
TEMPO 2816/2820 4000 TSRA BKN015 FEW025CB
RMK PHQ

Example: see airport list